sensor_id;sensor_type;location;lat;lon;timestamp;pressure;altitude;pressure_sealevel;temperature;humidity
27437;BME280;14886;51.586;6.722;2023-12-07T00:00:37;1018.3;;;0.3;97.9
27437;BME280;14886;51.586;6.722;2023-12-07T00:01:37;1018.3;;;0.4;97.9
27437;BME280;14886;51.586;6.722;2023-12-07T00:02:37;1018.3;;;0.3;98.0
27437;BME280;14886;51.586;6.722;2023-12-07T00:05:37;1018.3;;;0.4;98.0
27437;BME280;14886;51.586;6.722;2023-12-07T00:09:37;1018.3;;;0.5;98.0
27437;BME280;14886;51.586;6.722;2023-12-07T00:11:38;1018.3;;;0.4;98.0
27437;BME280;14886;51.586;6.722;2023-12-07T00:14:38;1018.3;;;0.3;97.9
27437;BME280;14886;51.586;6.722;2023-12-07T00:17:38;1018.3;;;0.2;97.9
27437;BME280;14886;51.586;6.722;2023-12-07T00:29:39;1018.2;;;0.1;98.0
27437;BME280;14886;51.586;6.722;2023-12-07T00:33:40;1018.1;;;0.2;97.9
27437;BME280;14886;51.586;6.722;2023-12-07T00:34:40;1018.2;;;0.3;98.0
27437;BME280;14886;51.586;6.722;2023-12-07T00:35:40;1018.1;;;0.4;98.2
27437;BME280;14886;51.586;6.722;2023-12-07T00:39:40;1018.1;;;0.3;98.1
27437;BME280;14886;51.586;6.722;2023-12-07T00:40:40;1018.1;;;0.2;98.0
27437;BME280;14886;51.586;6.722;2023-12-07T00:43:41;1018.1;;;0.3;97.8
27437;BME280;14886;51.586;6.722;2023-12-07T00:46:41;1018.1;;;0.2;97.9
27437;BME280;14886;51.586;6.722;2023-12-07T00:48:41;1018.1;;;0.1;97.8
27437;BME280;14886;51.586;6.722;2023-12-07T00:52:42;1018.1;;;0.0;98.0
27437;BME280;14886;51.586;6.722;2023-12-07T00:54:42;1018.2;;;-0.0;97.8
27437;BME280;14886;51.586;6.722;2023-12-07T00:55:42;1018.2;;;-0.1;97.7
27437;BME280;14886;51.586;6.722;2023-12-07T00:58:42;1018.3;;;-0.2;97.7
27437;BME280;14886;51.586;6.722;2023-12-07T01:00:42;1018.3;;;-0.3;97.7
27437;BME280;14886;51.586;6.722;2023-12-07T01:02:43;1018.3;;;-0.4;97.7
27437;BME280;14886;51.586;6.722;2023-12-07T01:04:43;1018.3;;;-0.5;97.7
27437;BME280;14886;51.586;6.722;2023-12-07T01:06:43;1018.4;;;-0.6;97.7
27437;BME280;14886;51.586;6.722;2023-12-07T01:07:43;1018.3;;;-0.7;97.7
27437;BME280;14886;51.586;6.722;2023-12-07T01:08:43;1018.3;;;-0.6;97.6
27437;BME280;14886;51.586;6.722;2023-12-07T01:10:43;1018.3;;;-0.5;97.7
27437;BME280;14886;51.586;6.722;2023-12-07T01:11:43;1018.3;;;-0.6;97.8
27437;BME280;14886;51.586;6.722;2023-12-07T01:12:43;1018.3;;;-0.7;97.6
27437;BME280;14886;51.586;6.722;2023-12-07T01:20:44;1018.4;;;-0.6;97.6
27437;BME280;14886;51.586;6.722;2023-12-07T01:22:45;1018.4;;;-0.5;97.8
27437;BME280;14886;51.586;6.722;2023-12-07T01:23:44;1018.4;;;-0.6;97.8
27437;BME280;14886;51.586;6.722;2023-12-07T01:26:45;1018.5;;;-0.7;97.6
27437;BME280;14886;51.586;6.722;2023-12-07T01:29:45;1018.5;;;-0.8;97.6
27437;BME280;14886;51.586;6.722;2023-12-07T01:31:45;1018.5;;;-0.9;97.6
27437;BME280;14886;51.586;6.722;2023-12-07T01:34:46;1018.4;;;-1.0;97.5
27437;BME280;14886;51.586;6.722;2023-12-07T01:36:46;1018.4;;;-0.9;97.4
27437;BME280;14886;51.586;6.722;2023-12-07T01:42:49;1018.4;;;-1.0;97.5
27437;BME280;14886;51.586;6.722;2023-12-07T01:47:47;1018.4;;;-1.1;97.5
27437;BME280;14886;51.586;6.722;2023-12-07T01:51:47;1018.4;;;-1.0;97.6
27437;BME280;14886;51.586;6.722;2023-12-07T01:57:48;1018.5;;;-0.9;97.7
27437;BME280;14886;51.586;6.722;2023-12-07T02:01:48;1018.5;;;-1.0;97.7
27437;BME280;14886;51.586;6.722;2023-12-07T02:05:49;1018.6;;;-1.1;97.7
27437;BME280;14886;51.586;6.722;2023-12-07T02:11:49;1018.5;;;-1.0;97.7
27437;BME280;14886;51.586;6.722;2023-12-07T02:12:49;1018.5;;;-0.9;97.8
27437;BME280;14886;51.586;6.722;2023-12-07T02:13:49;1018.5;;;-0.8;97.9
27437;BME280;14886;51.586;6.722;2023-12-07T02:16:50;1018.6;;;-0.9;97.9
27437;BME280;14886;51.586;6.722;2023-12-07T02:33:51;1018.7;;;-0.8;97.9
27437;BME280;14886;51.586;6.722;2023-12-07T02:36:51;1018.7;;;-0.7;97.9
27437;BME280;14886;51.586;6.722;2023-12-07T02:42:52;1018.7;;;-0.6;97.8
27437;BME280;14886;51.586;6.722;2023-12-07T02:43:52;1018.7;;;-0.7;97.8
27437;BME280;14886;51.586;6.722;2023-12-07T02:44:52;1018.8;;;-0.8;97.6
27437;BME280;14886;51.586;6.722;2023-12-07T02:45:52;1018.8;;;-1.0;97.8
27437;BME280;14886;51.586;6.722;2023-12-07T02:46:52;1018.9;;;-1.1;97.8
27437;BME280;14886;51.586;6.722;2023-12-07T02:48:53;1018.8;;;-1.0;97.6
27437;BME280;14886;51.586;6.722;2023-12-07T02:49:53;1018.7;;;-0.8;97.7
27437;BME280;14886;51.586;6.722;2023-12-07T02:59:54;1018.7;;;-0.7;98.1
27437;BME280;14886;51.586;6.722;2023-12-07T03:05:54;1018.7;;;-0.8;98.3
27437;BME280;14886;51.586;6.722;2023-12-07T03:06:54;1018.7;;;-0.7;98.3
27437;BME280;14886;51.586;6.722;2023-12-07T03:07:54;1018.7;;;-0.8;98.4
27437;BME280;14886;51.586;6.722;2023-12-07T03:09:55;1018.7;;;-0.7;98.4
27437;BME280;14886;51.586;6.722;2023-12-07T03:14:55;1018.7;;;-0.8;98.5
27437;BME280;14886;51.586;6.722;2023-12-07T03:16:55;1018.6;;;-0.7;98.5
27437;BME280;14886;51.586;6.722;2023-12-07T03:26:56;1018.6;;;-0.6;98.4
27437;BME280;14886;51.586;6.722;2023-12-07T03:32:57;1018.5;;;-0.5;98.4
27437;BME280;14886;51.586;6.722;2023-12-07T03:38:57;1018.6;;;-0.4;98.2
27437;BME280;14886;51.586;6.722;2023-12-07T03:44:58;1018.7;;;-0.3;98.2
27437;BME280;14886;51.586;6.722;2023-12-07T03:48:58;1018.7;;;-0.2;98.2
27437;BME280;14886;51.586;6.722;2023-12-07T03:53:59;1018.7;;;-0.1;98.3
27437;BME280;14886;51.586;6.722;2023-12-07T03:55:59;1018.8;;;-0.0;98.2
27437;BME280;14886;51.586;6.722;2023-12-07T03:57:59;1018.8;;;0.0;98.3
27437;BME280;14886;51.586;6.722;2023-12-07T04:00:59;1018.7;;;0.1;98.3
27437;BME280;14886;51.586;6.722;2023-12-07T04:13:00;1018.8;;;0.2;98.2
27437;BME280;14886;51.586;6.722;2023-12-07T04:19:01;1018.8;;;0.3;98.2
27437;BME280;14886;51.586;6.722;2023-12-07T04:26:02;1018.8;;;0.4;98.3
27437;BME280;14886;51.586;6.722;2023-12-07T04:36:03;1018.9;;;0.5;98.2
27437;BME280;14886;51.586;6.722;2023-12-07T04:39:03;1019.0;;;0.4;98.3
27437;BME280;14886;51.586;6.722;2023-12-07T04:41:03;1019.0;;;0.5;98.3
27437;BME280;14886;51.586;6.722;2023-12-07T04:42:03;1019.0;;;0.4;98.3
27437;BME280;14886;51.586;6.722;2023-12-07T04:43:03;1019.0;;;0.5;98.2
27437;BME280;14886;51.586;6.722;2023-12-07T05:00:05;1019.0;;;0.6;98.0
27437;BME280;14886;51.586;6.722;2023-12-07T05:09:06;1019.0;;;0.7;98.1
27437;BME280;14886;51.586;6.722;2023-12-07T05:15:07;1019.1;;;0.8;98.2
27437;BME280;14886;51.586;6.722;2023-12-07T05:19:07;1019.1;;;0.9;98.2
27437;BME280;14886;51.586;6.722;2023-12-07T05:24:07;1019.0;;;1.0;98.1
27437;BME280;14886;51.586;6.722;2023-12-07T05:34:08;1019.1;;;1.1;98.2
27437;BME280;14886;51.586;6.722;2023-12-07T05:37:08;1019.1;;;1.2;98.3
27437;BME280;14886;51.586;6.722;2023-12-07T05:38:08;1019.1;;;1.3;98.3
27437;BME280;14886;51.586;6.722;2023-12-07T05:40:09;1019.1;;;1.4;98.5
27437;BME280;14886;51.586;6.722;2023-12-07T06:13:12;1018.9;;;1.5;98.5
27437;BME280;14886;51.586;6.722;2023-12-07T06:35:14;1018.8;;;1.4;98.4
27437;BME280;14886;51.586;6.722;2023-12-07T06:46:15;1018.8;;;1.3;98.4
27437;BME280;14886;51.586;6.722;2023-12-07T06:47:15;1018.8;;;1.4;98.4
27437;BME280;14886;51.586;6.722;2023-12-07T06:48:15;1018.8;;;1.3;98.4
27437;BME280;14886;51.586;6.722;2023-12-07T07:01:16;1018.9;;;1.2;98.6
27437;BME280;14886;51.586;6.722;2023-12-07T07:04:16;1018.9;;;1.3;98.6
27437;BME280;14886;51.586;6.722;2023-12-07T07:13:17;1018.9;;;1.2;98.5
27437;BME280;14886;51.586;6.722;2023-12-07T07:24:18;1018.8;;;1.3;98.7
27437;BME280;14886;51.586;6.722;2023-12-07T07:38:19;1018.7;;;1.4;98.7
27437;BME280;14886;51.586;6.722;2023-12-07T07:39:19;1018.7;;;1.3;98.8
27437;BME280;14886;51.586;6.722;2023-12-07T07:41:20;1018.8;;;1.4;98.7
27437;BME280;14886;51.586;6.722;2023-12-07T07:43:20;1018.8;;;1.3;98.9
27437;BME280;14886;51.586;6.722;2023-12-07T07:55:21;1018.7;;;1.4;99.2
27437;BME280;14886;51.586;6.722;2023-12-07T08:01:21;1018.8;;;1.5;99.4
27437;BME280;14886;51.586;6.722;2023-12-07T08:10:22;1018.8;;;1.6;99.1
27437;BME280;14886;51.586;6.722;2023-12-07T08:13:23;1018.9;;;1.7;99.0
27437;BME280;14886;51.586;6.722;2023-12-07T08:21:23;1019.0;;;1.6;99.0
27437;BME280;14886;51.586;6.722;2023-12-07T08:22:23;1019.0;;;1.7;98.9
27437;BME280;14886;51.586;6.722;2023-12-07T08:24:23;1019.0;;;1.6;99.2
27437;BME280;14886;51.586;6.722;2023-12-07T08:25:24;1019.1;;;1.7;99.3
27437;BME280;14886;51.586;6.722;2023-12-07T08:27:24;1019.0;;;1.6;99.1
27437;BME280;14886;51.586;6.722;2023-12-07T08:33:24;1019.0;;;1.7;99.2
27437;BME280;14886;51.586;6.722;2023-12-07T08:38:25;1019.0;;;1.8;99.3
27437;BME280;14886;51.586;6.722;2023-12-07T08:41:25;1019.0;;;1.9;99.1
27437;BME280;14886;51.586;6.722;2023-12-07T08:44:25;1019.1;;;1.7;99.2
27437;BME280;14886;51.586;6.722;2023-12-07T08:47:26;1019.1;;;1.8;99.1
27437;BME280;14886;51.586;6.722;2023-12-07T08:48:26;1019.1;;;1.9;99.2
27437;BME280;14886;51.586;6.722;2023-12-07T08:49:26;1019.1;;;2.0;99.2
27437;BME280;14886;51.586;6.722;2023-12-07T08:51:27;1019.1;;;1.8;99.3
27437;BME280;14886;51.586;6.722;2023-12-07T08:52:26;1019.1;;;1.9;99.2
27437;BME280;14886;51.586;6.722;2023-12-07T08:53:26;1019.1;;;1.8;99.3
27437;BME280;14886;51.586;6.722;2023-12-07T08:55:26;1019.1;;;1.9;99.2
27437;BME280;14886;51.586;6.722;2023-12-07T08:56:27;1019.1;;;1.8;99.2
27437;BME280;14886;51.586;6.722;2023-12-07T08:59:27;1019.1;;;1.7;99.2
27437;BME280;14886;51.586;6.722;2023-12-07T09:01:27;1019.0;;;1.8;99.3
27437;BME280;14886;51.586;6.722;2023-12-07T09:03:27;1019.0;;;1.7;99.3
27437;BME280;14886;51.586;6.722;2023-12-07T09:05:28;1019.0;;;1.8;99.4
27437;BME280;14886;51.586;6.722;2023-12-07T09:13:28;1019.0;;;1.7;99.3
27437;BME280;14886;51.586;6.722;2023-12-07T09:14:28;1019.0;;;1.8;99.3
27437;BME280;14886;51.586;6.722;2023-12-07T09:15:28;1019.0;;;1.7;99.3
27437;BME280;14886;51.586;6.722;2023-12-07T09:18:29;1019.0;;;1.8;99.2
27437;BME280;14886;51.586;6.722;2023-12-07T09:21:29;1019.0;;;1.9;99.3
27437;BME280;14886;51.586;6.722;2023-12-07T09:23:29;1019.0;;;2.0;99.3
27437;BME280;14886;51.586;6.722;2023-12-07T09:28:30;1019.0;;;1.9;99.1
27437;BME280;14886;51.586;6.722;2023-12-07T09:29:30;1019.0;;;2.0;99.1
27437;BME280;14886;51.586;6.722;2023-12-07T09:31:30;1019.0;;;2.1;99.0
27437;BME280;14886;51.586;6.722;2023-12-07T09:32:30;1019.0;;;2.0;99.2
27437;BME280;14886;51.586;6.722;2023-12-07T09:34:30;1018.9;;;2.1;99.0
27437;BME280;14886;51.586;6.722;2023-12-07T09:39:31;1018.8;;;2.2;98.8
27437;BME280;14886;51.586;6.722;2023-12-07T09:43:31;1018.9;;;2.3;98.9
27437;BME280;14886;51.586;6.722;2023-12-07T09:45:32;1018.9;;;2.4;98.7
27437;BME280;14886;51.586;6.722;2023-12-07T09:47:31;1018.9;;;2.5;98.6
27437;BME280;14886;51.586;6.722;2023-12-07T09:49:32;1018.9;;;2.6;98.5
27437;BME280;14886;51.586;6.722;2023-12-07T09:50:32;1018.9;;;2.8;98.3
27437;BME280;14886;51.586;6.722;2023-12-07T09:52:32;1018.9;;;3.0;97.6
27437;BME280;14886;51.586;6.722;2023-12-07T09:53:32;1018.9;;;3.1;97.6
27437;BME280;14886;51.586;6.722;2023-12-07T09:54:32;1018.8;;;3.2;96.8
27437;BME280;14886;51.586;6.722;2023-12-07T09:55:32;1018.8;;;3.5;96.8
27437;BME280;14886;51.586;6.722;2023-12-07T09:57:32;1018.8;;;3.6;96.0
27437;BME280;14886;51.586;6.722;2023-12-07T09:58:32;1018.7;;;3.8;95.7
27437;BME280;14886;51.586;6.722;2023-12-07T10:00:33;1018.7;;;4.1;94.8
27437;BME280;14886;51.586;6.722;2023-12-07T10:01:33;1018.8;;;4.3;94.8
27437;BME280;14886;51.586;6.722;2023-12-07T10:02:35;1018.8;;;4.2;94.5
27437;BME280;14886;51.586;6.722;2023-12-07T10:03:33;1018.8;;;4.5;94.2
27437;BME280;14886;51.586;6.722;2023-12-07T10:05:33;1018.7;;;4.6;93.5
27437;BME280;14886;51.586;6.722;2023-12-07T10:06:38;1018.7;;;4.8;93.4
27437;BME280;14886;51.586;6.722;2023-12-07T10:07:34;1018.7;;;5.0;92.7
27437;BME280;14886;51.586;6.722;2023-12-07T10:08:33;1018.7;;;5.1;92.5
27437;BME280;14886;51.586;6.722;2023-12-07T10:11:34;1018.6;;;5.3;91.7
27437;BME280;14886;51.586;6.722;2023-12-07T10:12:34;1018.6;;;5.1;91.6
27437;BME280;14886;51.586;6.722;2023-12-07T10:14:34;1018.6;;;4.8;91.8
27437;BME280;14886;51.586;6.722;2023-12-07T10:15:34;1018.6;;;4.4;91.7
27437;BME280;14886;51.586;6.722;2023-12-07T10:16:34;1018.6;;;4.2;91.5
27437;BME280;14886;51.586;6.722;2023-12-07T10:19:34;1018.6;;;4.9;90.9
27437;BME280;14886;51.586;6.722;2023-12-07T10:20:34;1018.6;;;4.8;90.7
27437;BME280;14886;51.586;6.722;2023-12-07T10:21:34;1018.6;;;4.7;90.4
27437;BME280;14886;51.586;6.722;2023-12-07T10:22:35;1018.6;;;4.8;90.2
27437;BME280;14886;51.586;6.722;2023-12-07T10:23:35;1018.6;;;4.9;89.6
27437;BME280;14886;51.586;6.722;2023-12-07T10:26:35;1018.5;;;4.8;89.3
27437;BME280;14886;51.586;6.722;2023-12-07T10:27:35;1018.5;;;5.0;89.0
27437;BME280;14886;51.586;6.722;2023-12-07T10:28:35;1018.4;;;4.7;89.2
27437;BME280;14886;51.586;6.722;2023-12-07T10:29:35;1018.4;;;4.5;88.6
27437;BME280;14886;51.586;6.722;2023-12-07T10:30:36;1018.4;;;4.2;88.5
27437;BME280;14886;51.586;6.722;2023-12-07T10:31:36;1018.4;;;4.4;88.4
27437;BME280;14886;51.586;6.722;2023-12-07T10:32:36;1018.4;;;4.6;88.2
27437;BME280;14886;51.586;6.722;2023-12-07T10:33:36;1018.4;;;5.0;87.6
27437;BME280;14886;51.586;6.722;2023-12-07T10:34:36;1018.4;;;5.1;87.4
27437;BME280;14886;51.586;6.722;2023-12-07T10:35:38;1018.4;;;4.7;87.5
27437;BME280;14886;51.586;6.722;2023-12-07T10:36:36;1018.3;;;4.5;87.5
27437;BME280;14886;51.586;6.722;2023-12-07T10:38:36;1018.3;;;4.6;87.4
27437;BME280;14886;51.586;6.722;2023-12-07T10:39:36;1018.3;;;4.7;87.0
27437;BME280;14886;51.586;6.722;2023-12-07T10:40:36;1018.2;;;4.6;86.9
27437;BME280;14886;51.586;6.722;2023-12-07T10:41:36;1018.2;;;4.7;87.0
27437;BME280;14886;51.586;6.722;2023-12-07T10:43:37;1018.1;;;4.8;87.3
27437;BME280;14886;51.586;6.722;2023-12-07T10:44:37;1018.1;;;5.0;87.3
27437;BME280;14886;51.586;6.722;2023-12-07T10:45:37;1018.1;;;4.9;87.3
27437;BME280;14886;51.586;6.722;2023-12-07T10:46:37;1018.1;;;4.4;87.1
27437;BME280;14886;51.586;6.722;2023-12-07T10:48:37;1018.0;;;4.6;86.8
27437;BME280;14886;51.586;6.722;2023-12-07T10:49:37;1018.1;;;4.8;86.4
27437;BME280;14886;51.586;6.722;2023-12-07T10:50:37;1018.0;;;4.7;86.2
27437;BME280;14886;51.586;6.722;2023-12-07T10:51:38;1018.0;;;4.6;86.2
27437;BME280;14886;51.586;6.722;2023-12-07T10:52:39;1018.0;;;4.7;86.4
27437;BME280;14886;51.586;6.722;2023-12-07T10:53:38;1017.9;;;4.6;86.4
27437;BME280;14886;51.586;6.722;2023-12-07T10:54:38;1017.9;;;4.4;86.7
27437;BME280;14886;51.586;6.722;2023-12-07T10:55:40;1017.9;;;4.5;86.7
27437;BME280;14886;51.586;6.722;2023-12-07T10:56:38;1017.9;;;4.7;86.1
27437;BME280;14886;51.586;6.722;2023-12-07T10:57:38;1017.9;;;4.6;85.7
27437;BME280;14886;51.586;6.722;2023-12-07T10:58:38;1017.9;;;4.8;85.8
27437;BME280;14886;51.586;6.722;2023-12-07T10:59:38;1017.9;;;4.9;85.3
27437;BME280;14886;51.586;6.722;2023-12-07T11:00:40;1017.9;;;5.0;85.0
27437;BME280;14886;51.586;6.722;2023-12-07T11:01:38;1017.8;;;4.7;85.3
27437;BME280;14886;51.586;6.722;2023-12-07T11:02:38;1017.8;;;4.9;84.8
27437;BME280;14886;51.586;6.722;2023-12-07T11:03:38;1017.8;;;5.0;84.9
27437;BME280;14886;51.586;6.722;2023-12-07T11:05:38;1017.7;;;4.9;84.8
27437;BME280;14886;51.586;6.722;2023-12-07T11:07:42;1017.7;;;5.0;84.8
27437;BME280;14886;51.586;6.722;2023-12-07T11:09:39;1017.6;;;4.9;84.4
27437;BME280;14886;51.586;6.722;2023-12-07T11:10:42;1017.6;;;4.7;84.5
27437;BME280;14886;51.586;6.722;2023-12-07T11:11:41;1017.6;;;4.6;84.3
27437;BME280;14886;51.586;6.722;2023-12-07T11:12:50;1017.6;;;4.7;84.5
27437;BME280;14886;51.586;6.722;2023-12-07T11:14:39;1017.5;;;4.6;84.6
27437;BME280;14886;51.586;6.722;2023-12-07T11:15:39;1017.5;;;4.4;85.0
27437;BME280;14886;51.586;6.722;2023-12-07T11:16:40;1017.4;;;4.5;85.0
27437;BME280;14886;51.586;6.722;2023-12-07T11:17:47;1017.4;;;4.8;85.0
27437;BME280;14886;51.586;6.722;2023-12-07T11:18:40;1017.5;;;5.0;84.8
27437;BME280;14886;51.586;6.722;2023-12-07T11:21:40;1017.4;;;4.6;84.6
27437;BME280;14886;51.586;6.722;2023-12-07T11:22:40;1017.4;;;4.7;84.5
27437;BME280;14886;51.586;6.722;2023-12-07T11:23:40;1017.4;;;4.9;84.2
27437;BME280;14886;51.586;6.722;2023-12-07T11:26:42;1017.4;;;5.4;83.3
27437;BME280;14886;51.586;6.722;2023-12-07T11:27:43;1017.4;;;5.6;82.9
27437;BME280;14886;51.586;6.722;2023-12-07T11:28:40;1017.3;;;5.4;83.1
27437;BME280;14886;51.586;6.722;2023-12-07T11:29:41;1017.3;;;5.2;83.0
27437;BME280;14886;51.586;6.722;2023-12-07T11:30:41;1017.3;;;5.3;82.7
27437;BME280;14886;51.586;6.722;2023-12-07T11:31:41;1017.3;;;5.1;82.9
27437;BME280;14886;51.586;6.722;2023-12-07T11:32:41;1017.3;;;5.0;83.3
27437;BME280;14886;51.586;6.722;2023-12-07T11:33:41;1017.2;;;5.1;83.2
27437;BME280;14886;51.586;6.722;2023-12-07T11:36:41;1017.2;;;4.8;83.5
27437;BME280;14886;51.586;6.722;2023-12-07T11:39:42;1017.1;;;4.9;83.2
27437;BME280;14886;51.586;6.722;2023-12-07T11:41:42;1017.1;;;4.8;83.0
27437;BME280;14886;51.586;6.722;2023-12-07T11:42:42;1017.0;;;4.7;83.0
27437;BME280;14886;51.586;6.722;2023-12-07T11:45:47;1017.0;;;4.9;82.6
27437;BME280;14886;51.586;6.722;2023-12-07T11:46:42;1017.0;;;5.1;82.4
27437;BME280;14886;51.586;6.722;2023-12-07T11:49:43;1016.9;;;5.2;81.6
27437;BME280;14886;51.586;6.722;2023-12-07T11:51:43;1016.9;;;5.2;81.7
27437;BME280;14886;51.586;6.722;2023-12-07T11:52:43;1016.9;;;4.9;82.4
27437;BME280;14886;51.586;6.722;2023-12-07T11:53:43;1016.8;;;4.7;82.9
27437;BME280;14886;51.586;6.722;2023-12-07T11:54:43;1016.8;;;4.8;83.0
27437;BME280;14886;51.586;6.722;2023-12-07T11:55:43;1016.9;;;4.9;82.7
27437;BME280;14886;51.586;6.722;2023-12-07T11:56:43;1016.9;;;5.4;82.0
27437;BME280;14886;51.586;6.722;2023-12-07T12:00:44;1016.9;;;5.6;80.6
27437;BME280;14886;51.586;6.722;2023-12-07T12:03:44;1016.9;;;5.4;80.4
27437;BME280;14886;51.586;6.722;2023-12-07T12:06:44;1016.9;;;5.2;81.0
27437;BME280;14886;51.586;6.722;2023-12-07T12:07:44;1016.9;;;5.4;80.8
27437;BME280;14886;51.586;6.722;2023-12-07T12:08:44;1016.9;;;5.6;80.1
27437;BME280;14886;51.586;6.722;2023-12-07T12:10:45;1016.8;;;5.7;79.4
27437;BME280;14886;51.586;6.722;2023-12-07T12:12:45;1016.8;;;5.5;80.0
27437;BME280;14886;51.586;6.722;2023-12-07T12:13:45;1016.8;;;5.2;80.4
27437;BME280;14886;51.586;6.722;2023-12-07T12:14:45;1016.8;;;5.0;80.9
27437;BME280;14886;51.586;6.722;2023-12-07T12:15:45;1016.7;;;4.9;80.9
27437;BME280;14886;51.586;6.722;2023-12-07T12:16:45;1016.7;;;5.1;81.1
27437;BME280;14886;51.586;6.722;2023-12-07T12:17:45;1016.7;;;5.0;81.2
27437;BME280;14886;51.586;6.722;2023-12-07T12:18:45;1016.7;;;4.8;81.0
27437;BME280;14886;51.586;6.722;2023-12-07T12:19:45;1016.7;;;5.0;81.3
27437;BME280;14886;51.586;6.722;2023-12-07T12:20:45;1016.7;;;5.1;81.2
27437;BME280;14886;51.586;6.722;2023-12-07T12:22:46;1016.7;;;5.2;80.9
27437;BME280;14886;51.586;6.722;2023-12-07T12:23:47;1016.6;;;5.1;81.2
27437;BME280;14886;51.586;6.722;2023-12-07T12:24:46;1016.6;;;5.0;81.3
27437;BME280;14886;51.586;6.722;2023-12-07T12:25:46;1016.6;;;4.8;81.7
27437;BME280;14886;51.586;6.722;2023-12-07T12:26:46;1016.6;;;4.9;81.4
27437;BME280;14886;51.586;6.722;2023-12-07T12:29:46;1016.6;;;4.8;81.3
27437;BME280;14886;51.586;6.722;2023-12-07T12:32:47;1016.5;;;4.7;82.2
27437;BME280;14886;51.586;6.722;2023-12-07T12:33:47;1016.5;;;4.8;82.0
27437;BME280;14886;51.586;6.722;2023-12-07T12:35:47;1016.5;;;4.7;82.3
27437;BME280;14886;51.586;6.722;2023-12-07T12:36:47;1016.4;;;4.6;82.7
27437;BME280;14886;51.586;6.722;2023-12-07T12:38:47;1016.4;;;4.7;83.0
27437;BME280;14886;51.586;6.722;2023-12-07T12:40:47;1016.4;;;4.8;82.9
27437;BME280;14886;51.586;6.722;2023-12-07T12:41:47;1016.4;;;4.7;82.6
27437;BME280;14886;51.586;6.722;2023-12-07T12:42:48;1016.4;;;4.8;82.3
27437;BME280;14886;51.586;6.722;2023-12-07T12:44:47;1016.4;;;4.7;82.7
27437;BME280;14886;51.586;6.722;2023-12-07T12:45:48;1016.4;;;4.8;82.5
27437;BME280;14886;51.586;6.722;2023-12-07T12:46:48;1016.3;;;4.9;82.3
27437;BME280;14886;51.586;6.722;2023-12-07T12:47:48;1016.3;;;5.0;82.1
27437;BME280;14886;51.586;6.722;2023-12-07T12:49:48;1016.2;;;4.7;82.3
27437;BME280;14886;51.586;6.722;2023-12-07T12:51:48;1016.2;;;4.8;82.3
27437;BME280;14886;51.586;6.722;2023-12-07T12:53:49;1016.2;;;5.1;81.8
27437;BME280;14886;51.586;6.722;2023-12-07T12:54:48;1016.2;;;5.0;82.0
27437;BME280;14886;51.586;6.722;2023-12-07T12:56:49;1016.2;;;4.8;81.8
27437;BME280;14886;51.586;6.722;2023-12-07T12:57:49;1016.2;;;4.7;82.0
27437;BME280;14886;51.586;6.722;2023-12-07T12:58:49;1016.2;;;4.8;81.9
27437;BME280;14886;51.586;6.722;2023-12-07T12:59:50;1016.2;;;4.9;81.5
27437;BME280;14886;51.586;6.722;2023-12-07T13:00:49;1016.2;;;4.7;81.8
27437;BME280;14886;51.586;6.722;2023-12-07T13:01:50;1016.2;;;4.8;81.8
27437;BME280;14886;51.586;6.722;2023-12-07T13:02:49;1016.2;;;4.7;81.4
27437;BME280;14886;51.586;6.722;2023-12-07T13:03:49;1016.2;;;4.9;80.8
27437;BME280;14886;51.586;6.722;2023-12-07T13:06:50;1016.2;;;4.8;81.6
27437;BME280;14886;51.586;6.722;2023-12-07T13:07:50;1016.2;;;4.9;81.3
27437;BME280;14886;51.586;6.722;2023-12-07T13:08:50;1016.1;;;4.8;81.7
27437;BME280;14886;51.586;6.722;2023-12-07T13:10:50;1016.0;;;4.6;82.2
27437;BME280;14886;51.586;6.722;2023-12-07T13:11:50;1016.0;;;4.5;82.4
27437;BME280;14886;51.586;6.722;2023-12-07T13:15:50;1015.9;;;4.6;82.4
27437;BME280;14886;51.586;6.722;2023-12-07T13:16:50;1016.0;;;4.5;82.3
27437;BME280;14886;51.586;6.722;2023-12-07T13:17:51;1016.0;;;4.6;82.2
27437;BME280;14886;51.586;6.722;2023-12-07T13:22:51;1016.1;;;4.5;82.0
27437;BME280;14886;51.586;6.722;2023-12-07T13:23:51;1016.1;;;4.4;82.0
27437;BME280;14886;51.586;6.722;2023-12-07T13:24:51;1016.1;;;4.5;81.8
27437;BME280;14886;51.586;6.722;2023-12-07T13:26:51;1016.0;;;4.4;82.1
27437;BME280;14886;51.586;6.722;2023-12-07T13:28:52;1016.0;;;4.5;82.2
27437;BME280;14886;51.586;6.722;2023-12-07T13:29:52;1016.0;;;4.6;81.8
27437;BME280;14886;51.586;6.722;2023-12-07T13:34:52;1016.0;;;4.5;81.8
27437;BME280;14886;51.586;6.722;2023-12-07T13:35:52;1016.0;;;4.7;81.3
27437;BME280;14886;51.586;6.722;2023-12-07T13:36:52;1015.9;;;4.6;81.2
27437;BME280;14886;51.586;6.722;2023-12-07T13:37:52;1015.9;;;4.7;81.1
27437;BME280;14886;51.586;6.722;2023-12-07T13:38:53;1016.0;;;4.9;80.8
27437;BME280;14886;51.586;6.722;2023-12-07T13:39:53;1015.9;;;4.8;80.2
27437;BME280;14886;51.586;6.722;2023-12-07T13:40:53;1015.9;;;4.7;80.2
27437;BME280;14886;51.586;6.722;2023-12-07T13:41:54;1015.9;;;4.5;80.4
27437;BME280;14886;51.586;6.722;2023-12-07T13:42:53;1015.9;;;4.6;80.5
27437;BME280;14886;51.586;6.722;2023-12-07T13:43:53;1015.9;;;4.7;80.1
27437;BME280;14886;51.586;6.722;2023-12-07T13:45:53;1015.8;;;4.6;80.2
27437;BME280;14886;51.586;6.722;2023-12-07T13:47:53;1015.9;;;4.7;80.2
27437;BME280;14886;51.586;6.722;2023-12-07T13:50:53;1015.8;;;4.6;80.4
27437;BME280;14886;51.586;6.722;2023-12-07T13:52:54;1015.8;;;4.5;81.1
27437;BME280;14886;51.586;6.722;2023-12-07T13:54:54;1015.7;;;4.4;80.8
27437;BME280;14886;51.586;6.722;2023-12-07T13:55:54;1015.8;;;4.5;80.9
27437;BME280;14886;51.586;6.722;2023-12-07T13:59:54;1015.7;;;4.4;81.0
27437;BME280;14886;51.586;6.722;2023-12-07T14:00:54;1015.6;;;4.3;80.7
27437;BME280;14886;51.586;6.722;2023-12-07T14:03:55;1015.4;;;4.4;81.1
27437;BME280;14886;51.586;6.722;2023-12-07T14:04:56;1015.4;;;4.5;81.2
27437;BME280;14886;51.586;6.722;2023-12-07T14:05:55;1015.3;;;4.3;81.3
27437;BME280;14886;51.586;6.722;2023-12-07T14:07:55;1015.2;;;4.4;81.6
27437;BME280;14886;51.586;6.722;2023-12-07T14:08:55;1015.1;;;4.3;81.6
27437;BME280;14886;51.586;6.722;2023-12-07T14:12:55;1015.1;;;4.2;81.1
27437;BME280;14886;51.586;6.722;2023-12-07T14:20:56;1015.0;;;4.1;81.1
27437;BME280;14886;51.586;6.722;2023-12-07T14:21:56;1015.0;;;4.2;80.9
27437;BME280;14886;51.586;6.722;2023-12-07T14:22:56;1015.0;;;4.1;80.7
27437;BME280;14886;51.586;6.722;2023-12-07T14:30:57;1015.1;;;4.0;81.8
27437;BME280;14886;51.586;6.722;2023-12-07T14:31:57;1015.1;;;4.1;82.0
27437;BME280;14886;51.586;6.722;2023-12-07T14:32:57;1015.0;;;4.0;81.9
27437;BME280;14886;51.586;6.722;2023-12-07T14:43:58;1014.9;;;3.9;82.6
27437;BME280;14886;51.586;6.722;2023-12-07T14:53:59;1014.5;;;3.8;83.0
27437;BME280;14886;51.586;6.722;2023-12-07T15:04:00;1014.3;;;3.7;83.2
27437;BME280;14886;51.586;6.722;2023-12-07T15:08:00;1014.2;;;3.6;83.4
27437;BME280;14886;51.586;6.722;2023-12-07T15:16:01;1014.3;;;3.5;83.1
27437;BME280;14886;51.586;6.722;2023-12-07T15:20:01;1014.3;;;3.6;82.6
27437;BME280;14886;51.586;6.722;2023-12-07T15:26:02;1014.3;;;3.5;82.7
27437;BME280;14886;51.586;6.722;2023-12-07T15:29:02;1014.3;;;3.4;83.0
27437;BME280;14886;51.586;6.722;2023-12-07T15:31:03;1014.3;;;3.5;82.6
27437;BME280;14886;51.586;6.722;2023-12-07T15:33:03;1014.3;;;3.4;82.9
27437;BME280;14886;51.586;6.722;2023-12-07T15:37:03;1014.2;;;3.3;83.2
27437;BME280;14886;51.586;6.722;2023-12-07T15:42:04;1014.1;;;3.2;83.6